createdAt,value
2016-05-25T00:00:57.313Z,1007.72
2016-05-25T00:01:57.284Z,1007.71
2016-05-25T00:02:57.708Z,1007.65
2016-05-25T00:03:57.211Z,1007.65
2016-05-25T00:04:57.371Z,1007.63
2016-05-25T00:05:57.186Z,1007.57
2016-05-25T00:06:57.173Z,1007.6
2016-05-25T00:07:57.144Z,1007.57
2016-05-25T00:08:57.116Z,1007.56
2016-05-25T00:09:57.135Z,1007.59
2016-05-25T00:10:57.746Z,1007.59
2016-05-25T00:11:57.046Z,1007.62
2016-05-25T00:12:57.048Z,1007.59
2016-05-25T00:13:57.113Z,1007.64
2016-05-25T00:14:56.976Z,1007.64
2016-05-25T00:15:57.321Z,1007.62
2016-05-25T00:16:57.107Z,1007.63
2016-05-25T00:17:56.890Z,1007.6
2016-05-25T00:18:57.627Z,1007.61
2016-05-25T00:19:57.364Z,1007.59
2016-05-25T00:20:57.273Z,1007.53
2016-05-25T00:21:57.401Z,1007.52
2016-05-25T00:22:57.465Z,1007.51
2016-05-25T00:23:57.750Z,1007.51
2016-05-25T00:24:57.378Z,1007.57
2016-05-25T00:25:57.053Z,1007.56
2016-05-25T00:26:57.226Z,1007.56
2016-05-25T00:27:57.214Z,1007.59
2016-05-25T00:28:57.092Z,1007.55
2016-05-25T00:29:57.189Z,1007.53
2016-05-25T00:30:57.191Z,1007.55
2016-05-25T00:31:57.600Z,1007.58
2016-05-25T00:32:57.071Z,1007.58
2016-05-25T00:33:56.870Z,1007.57
2016-05-25T00:34:57.108Z,1007.52
2016-05-25T00:35:56.782Z,1007.63
2016-05-25T00:36:56.894Z,1007.59
2016-05-25T00:37:57.240Z,1007.59
2016-05-25T00:38:56.416Z,1007.6
2016-05-25T00:39:56.559Z,1007.61
2016-05-25T00:40:56.374Z,1007.67
2016-05-25T00:41:56.346Z,1007.66
2016-05-25T00:42:56.316Z,1007.65
2016-05-25T00:43:56.679Z,1007.66
2016-05-25T00:44:56.259Z,1007.64
2016-05-25T00:45:56.262Z,1007.67
2016-05-25T00:46:56.218Z,1007.66
2016-05-25T00:47:56.221Z,1007.65
2016-05-25T00:48:56.380Z,1007.68
2016-05-25T00:49:56.163Z,1007.68
2016-05-25T00:50:56.151Z,1007.68
2016-05-25T00:51:56.106Z,1007.67
2016-05-25T00:52:56.093Z,1007.67
2016-05-25T00:53:56.065Z,1007.67
2016-05-25T00:54:56.036Z,1007.68
2016-05-25T00:55:56.009Z,1007.68
2016-05-25T00:56:55.995Z,1007.68
2016-05-25T00:57:55.966Z,1007.71
2016-05-25T00:58:55.937Z,1007.7
2016-05-25T00:59:55.909Z,1007.69
2016-05-25T01:00:55.897Z,1007.69
2016-05-25T01:01:55.914Z,1007.71
2016-05-25T01:02:55.839Z,1007.7
2016-05-25T01:03:55.811Z,1007.73
2016-05-25T01:04:55.797Z,1007.72
2016-05-25T01:05:55.785Z,1007.75
2016-05-25T01:06:55.755Z,1007.73
2016-05-25T01:07:55.727Z,1007.69
2016-05-25T01:08:55.714Z,1007.69
2016-05-25T01:09:55.686Z,1007.7
2016-05-25T01:10:55.642Z,1007.67
2016-05-25T01:11:55.629Z,1007.66
2016-05-25T01:12:55.850Z,1007.64
2016-05-25T01:13:55.587Z,1007.6
2016-05-25T01:14:55.715Z,1007.6
2016-05-25T01:15:55.530Z,1007.63
2016-05-25T01:16:55.517Z,1007.62
2016-05-25T01:17:55.504Z,1007.62
2016-05-25T01:18:55.976Z,1007.61
2016-05-25T01:19:55.432Z,1007.61
2016-05-25T01:20:55.434Z,1007.58
2016-05-25T01:21:55.390Z,1007.59
2016-05-25T01:22:55.377Z,1007.62
2016-05-25T01:23:55.364Z,1007.62
2016-05-25T01:24:55.320Z,1007.61
2016-05-25T01:25:55.307Z,1007.61
2016-05-25T01:26:55.278Z,1007.62
2016-05-25T01:27:55.391Z,1007.63
2016-05-25T01:28:55.222Z,1007.61
2016-05-25T01:29:55.693Z,1007.59
2016-05-25T01:30:55.617Z,1007.63
2016-05-25T01:31:55.855Z,1007.63
2016-05-25T01:32:55.139Z,1007.6
2016-05-25T01:33:55.156Z,1007.63
2016-05-25T01:34:55.097Z,1007.62
2016-05-25T01:35:55.053Z,1007.61
2016-05-25T01:36:55.305Z,1007.63
2016-05-25T01:37:55.027Z,1007.65
2016-05-25T01:38:55.138Z,1007.62
2016-05-25T01:39:55.079Z,1007.63
2016-05-25T01:40:54.958Z,1007.62
2016-05-25T01:41:54.944Z,1007.61
2016-05-25T01:42:54.947Z,1007.63
2016-05-25T01:43:54.871Z,1007.58
2016-05-25T01:44:54.858Z,1007.59
2016-05-25T01:45:54.846Z,1007.58
2016-05-25T01:46:54.816Z,1007.56
2016-05-25T01:47:54.773Z,1007.57
2016-05-25T01:48:54.760Z,1007.57
2016-05-25T01:49:54.732Z,1007.52
2016-05-25T01:50:54.827Z,1007.53
2016-05-25T01:51:54.689Z,1007.54
2016-05-25T01:52:54.662Z,1007.51
2016-05-25T01:53:54.632Z,1007.56
2016-05-25T01:54:54.620Z,1007.57
2016-05-25T01:55:54.637Z,1007.58
2016-05-25T01:56:54.609Z,1007.57
2016-05-25T01:57:54.987Z,1007.56
2016-05-25T01:58:54.692Z,1007.52
2016-05-25T01:59:54.508Z,1007.55
2016-05-25T02:00:54.604Z,1007.52
2016-05-25T02:01:54.482Z,1007.51
2016-05-25T02:02:54.470Z,1007.52
2016-05-25T02:03:54.456Z,1007.48
2016-05-25T02:04:54.444Z,1007.49
2016-05-25T02:05:54.524Z,1007.47
2016-05-25T02:06:54.339Z,1007.46
2016-05-25T02:07:54.327Z,1007.45
2016-05-25T02:08:54.266Z,1007.43
2016-05-25T02:09:54.269Z,1007.49
2016-05-25T02:10:54.241Z,1007.49
2016-05-25T02:11:54.447Z,1007.51
2016-05-25T02:12:54.184Z,1007.53
2016-05-25T02:13:54.171Z,1007.51
2016-05-25T02:14:54.455Z,1007.5
2016-05-25T02:15:54.129Z,1007.51
2016-05-25T02:16:54.116Z,1007.5
2016-05-25T02:17:54.071Z,1007.46
2016-05-25T02:18:54.059Z,1007.47
2016-05-25T02:19:54.030Z,1007.45
2016-05-25T02:20:54.018Z,1007.47
2016-05-25T02:21:53.989Z,1007.45
2016-05-25T02:22:53.945Z,1007.43
2016-05-25T02:23:53.932Z,1007.44
2016-05-25T02:24:53.919Z,1007.43
2016-05-25T02:25:54.078Z,1007.38
2016-05-25T02:26:53.862Z,1007.4
2016-05-25T02:27:53.833Z,1007.35
2016-05-25T02:28:53.820Z,1007.32
2016-05-25T02:29:53.791Z,1007.39
2016-05-25T02:30:53.763Z,1007.37
2016-05-25T02:31:53.750Z,1007.39
2016-05-25T02:32:53.722Z,1007.44
2016-05-25T02:33:53.693Z,1007.45
2016-05-25T02:34:53.681Z,1007.48
2016-05-25T02:35:53.652Z,1007.39
2016-05-25T02:36:53.748Z,1007.47
2016-05-25T02:37:53.610Z,1007.44
2016-05-25T02:38:53.581Z,1007.42
2016-05-25T02:39:53.552Z,1007.42
2016-05-25T02:40:53.587Z,1007.41
2016-05-25T02:41:53.511Z,1007.42
2016-05-25T02:42:53.561Z,1007.39
2016-05-25T02:43:53.533Z,1007.43
2016-05-25T02:44:53.426Z,1007.45
2016-05-25T02:45:53.397Z,1007.41
2016-05-25T02:46:53.385Z,1007.43
2016-05-25T02:47:53.371Z,1007.36
2016-05-25T02:48:53.343Z,1007.37
2016-05-25T02:49:53.314Z,1007.42
2016-05-25T02:50:53.285Z,1007.37
2016-05-25T02:51:53.258Z,1007.35
2016-05-25T02:52:53.243Z,1007.36
2016-05-25T02:53:53.232Z,1007.38
2016-05-25T02:54:53.187Z,1007.33
2016-05-25T02:55:53.174Z,1007.36
2016-05-25T02:56:53.302Z,1007.34
2016-05-25T02:57:53.148Z,1007.31
2016-05-25T02:58:53.104Z,1007.3
2016-05-25T02:59:53.091Z,1007.32
2016-05-25T03:00:53.062Z,1007.29
2016-05-25T03:01:53.050Z,1007.3
2016-05-25T03:02:53.021Z,1007.22
2016-05-25T03:03:53.539Z,1007.26
2016-05-25T03:04:52.964Z,1007.26
2016-05-25T03:05:52.950Z,1007.28
2016-05-25T03:06:53.329Z,1007.33
2016-05-25T03:07:53.425Z,1007.3
2016-05-25T03:08:52.881Z,1007.29
2016-05-25T03:09:52.946Z,1007.28
2016-05-25T03:10:52.808Z,1007.28
2016-05-25T03:11:52.779Z,1007.25
2016-05-25T03:12:52.783Z,1007.28
2016-05-25T03:13:53.300Z,1007.23
2016-05-25T03:14:53.069Z,1007.25
2016-05-25T03:15:52.712Z,1007.28
2016-05-25T03:16:52.668Z,1007.29
2016-05-25T03:17:52.640Z,1007.28
2016-05-25T03:18:52.643Z,1007.27
2016-05-25T03:19:52.613Z,1007.26
2016-05-25T03:20:52.601Z,1007.27
2016-05-25T03:21:52.557Z,1007.24
2016-05-25T03:22:52.544Z,1007.31
2016-05-25T03:23:52.499Z,1007.29
2016-05-25T03:24:52.502Z,1007.3
2016-05-25T03:25:52.458Z,1007.29
2016-05-25T03:26:52.430Z,1007.3
2016-05-25T03:27:52.417Z,1007.26
2016-05-25T03:28:52.404Z,1007.26
2016-05-25T03:29:52.375Z,1007.21
2016-05-25T03:30:52.346Z,1007.21
2016-05-25T03:31:52.365Z,1007.2
2016-05-25T03:32:52.305Z,1007.21
2016-05-25T03:33:52.495Z,1007.17
2016-05-25T03:34:52.248Z,1007.21
2016-05-25T03:35:52.250Z,1007.22
2016-05-25T03:36:52.222Z,1007.19
2016-05-25T03:37:52.194Z,1007.21
2016-05-25T03:38:52.164Z,1007.22
2016-05-25T03:39:52.152Z,1007.2
2016-05-25T03:40:52.108Z,1007.17
2016-05-25T03:41:52.079Z,1007.2
2016-05-25T03:42:52.066Z,1007.17
2016-05-25T03:46:15.186Z,1007.19
2016-05-25T03:47:15.392Z,1007.19
2016-05-25T03:48:15.114Z,1007.17
2016-05-25T03:49:15.085Z,1007.16
2016-05-25T03:50:15.072Z,1007.16
2016-05-25T03:51:15.027Z,1007.14
2016-05-25T03:52:15.359Z,1007.2
2016-05-25T03:53:15.190Z,1007.18
2016-05-25T03:54:14.957Z,1007.19
2016-05-25T03:55:14.946Z,1007.19
2016-05-25T03:56:14.916Z,1007.21
2016-05-25T03:57:14.904Z,1007.2
2016-05-25T03:58:14.876Z,1007.21
2016-05-25T03:59:14.847Z,1007.19
2016-05-25T04:00:14.818Z,1007.21
2016-05-25T04:01:14.804Z,1007.19
2016-05-25T04:02:14.793Z,1007.17
2016-05-25T04:03:14.764Z,1007.15
2016-05-25T04:04:14.735Z,1007.13
2016-05-25T04:05:14.707Z,1007.09
2016-05-25T04:06:14.678Z,1007.05
2016-05-25T04:07:14.680Z,1007.07
2016-05-25T04:08:14.637Z,1007.05
2016-05-25T04:09:14.623Z,1007.1
2016-05-25T04:10:14.595Z,1007.07
2016-05-25T04:11:14.566Z,1007.07
2016-05-25T04:12:14.538Z,1007.04
2016-05-25T04:13:14.853Z,1007.02
2016-05-25T04:14:14.497Z,1007.01
2016-05-25T04:15:14.499Z,1006.98
2016-05-25T04:16:14.439Z,1006.97
2016-05-25T04:17:14.410Z,1006.97
2016-05-25T04:18:14.397Z,1006.92
2016-05-25T04:19:14.392Z,1006.92
2016-05-25T04:20:14.388Z,1006.95
2016-05-25T04:21:14.414Z,1006.95
2016-05-25T04:22:14.410Z,1006.93
2016-05-25T04:23:14.404Z,1006.92
2016-05-25T04:24:14.384Z,1006.89
2016-05-25T04:25:14.380Z,1006.94
2016-05-25T04:26:14.345Z,1006.9
2016-05-25T04:27:14.356Z,1006.87
2016-05-25T04:28:14.304Z,1006.89
2016-05-25T04:29:14.310Z,1006.88
2016-05-25T04:30:14.300Z,1006.9
2016-05-25T04:31:14.260Z,1006.89
2016-05-25T04:32:14.233Z,1006.89
2016-05-25T04:33:14.396Z,1006.93
2016-05-25T04:34:14.212Z,1006.91
2016-05-25T04:35:14.168Z,1006.9
2016-05-25T04:36:14.158Z,1006.89
2016-05-25T04:37:14.129Z,1006.89
2016-05-25T04:38:14.119Z,1006.91
2016-05-25T04:39:14.090Z,1006.93
2016-05-25T04:40:14.077Z,1006.97
2016-05-25T04:41:14.096Z,1007.01
2016-05-25T04:42:14.021Z,1007.01
2016-05-25T04:43:14.008Z,1006.96
2016-05-25T04:44:13.980Z,1006.98
2016-05-25T04:45:13.951Z,1007
2016-05-25T04:46:14.282Z,1006.99
2016-05-25T04:47:13.910Z,1007
2016-05-25T04:48:13.881Z,1006.97
2016-05-25T04:49:13.837Z,1006.98
2016-05-25T04:50:13.825Z,1006.97
2016-05-25T04:51:13.795Z,1006.93
2016-05-25T04:52:13.798Z,1006.93
2016-05-25T04:53:13.738Z,1006.93
2016-05-25T04:54:13.726Z,1007
2016-05-25T04:55:14.056Z,1006.93
2016-05-25T04:56:13.683Z,1006.98
2016-05-25T04:57:13.671Z,1006.99
2016-05-25T04:58:13.642Z,1006.96
2016-05-25T04:59:13.614Z,1006.98
2016-05-25T05:00:13.898Z,1007
2016-05-25T05:01:13.588Z,1006.98
2016-05-25T05:02:13.560Z,1007
2016-05-25T05:03:13.547Z,1007.02
2016-05-25T05:04:13.502Z,1007.01
2016-05-25T05:05:13.474Z,1007.02
2016-05-25T05:06:13.570Z,1007
2016-05-25T05:07:13.432Z,1007.03
2016-05-25T05:08:13.435Z,1007.06
2016-05-25T05:09:13.375Z,1007.07
2016-05-25T05:10:13.612Z,1007.05
2016-05-25T05:11:13.334Z,1007.07
2016-05-25T05:12:13.321Z,1007.06
2016-05-25T05:13:13.292Z,1007.02
2016-05-25T05:14:13.264Z,1007.06
2016-05-25T05:15:13.235Z,1007.1
2016-05-25T05:16:13.223Z,1007.15
2016-05-25T05:17:13.522Z,1007.13
2016-05-25T05:18:13.165Z,1007.16
2016-05-25T05:19:13.152Z,1007.16
2016-05-25T05:20:13.156Z,1007.17
2016-05-25T05:21:13.345Z,1007.24
2016-05-25T05:22:13.082Z,1007.2
2016-05-25T05:23:13.053Z,1007.26
2016-05-25T05:24:13.025Z,1007.3
2016-05-25T05:25:13.012Z,1007.28
2016-05-25T05:26:13.000Z,1007.36
2016-05-25T05:27:12.955Z,1007.32
2016-05-25T05:28:12.958Z,1007.37
2016-05-25T05:29:12.913Z,1007.37
2016-05-25T05:30:12.900Z,1007.37
2016-05-25T05:31:13.200Z,1007.36
2016-05-25T05:32:13.094Z,1007.39
2016-05-25T05:33:12.815Z,1007.41
2016-05-25T05:34:12.802Z,1007.38
2016-05-25T05:35:12.774Z,1007.38
2016-05-25T05:36:12.745Z,1007.4
2016-05-25T05:37:12.732Z,1007.37
2016-05-25T05:38:12.704Z,1007.39
2016-05-25T05:39:12.672Z,1007.4
2016-05-25T05:40:12.659Z,1007.42
2016-05-25T05:41:12.615Z,1007.42
2016-05-25T05:42:12.602Z,1007.41
2016-05-25T05:43:12.573Z,1007.41
2016-05-25T05:44:12.576Z,1007.41
2016-05-25T05:45:12.547Z,1007.39
2016-05-25T05:46:12.504Z,1007.41
2016-05-25T05:47:12.725Z,1007.42
2016-05-25T05:48:12.462Z,1007.41
2016-05-25T05:49:12.449Z,1007.45
2016-05-25T05:50:12.420Z,1007.45
2016-05-25T05:51:12.407Z,1007.43
2016-05-25T05:52:12.379Z,1007.41
2016-05-25T05:53:12.350Z,1007.48
2016-05-25T05:54:12.337Z,1007.43
2016-05-25T05:55:12.308Z,1007.45
2016-05-25T05:56:12.281Z,1007.44
2016-05-25T05:57:12.283Z,1007.38
2016-05-25T05:58:12.536Z,1007.42
2016-05-25T05:59:12.273Z,1007.4
2016-05-25T06:00:12.197Z,1007.38
2016-05-25T06:01:12.216Z,1007.41
2016-05-25T06:02:12.124Z,1007.4
2016-05-25T06:03:12.127Z,1007.41
2016-05-25T06:04:12.083Z,1007.43
2016-05-25T06:05:12.054Z,1007.39
2016-05-25T06:06:12.072Z,1007.37
2016-05-25T06:07:12.013Z,1007.39
2016-05-25T06:08:11.999Z,1007.4
2016-05-25T06:09:12.003Z,1007.38
2016-05-25T06:10:11.958Z,1007.36
2016-05-25T06:11:12.352Z,1007.36
2016-05-25T06:12:11.918Z,1007.32
2016-05-25T06:13:11.920Z,1007.33
2016-05-25T06:14:11.860Z,1007.32
2016-05-25T06:15:11.831Z,1007.29
2016-05-25T06:16:11.818Z,1007.35
2016-05-25T06:17:11.806Z,1007.31
2016-05-25T06:18:11.745Z,1007.33
2016-05-25T06:19:11.718Z,1007.32
2016-05-25T06:20:11.720Z,1007.33
2016-05-25T06:21:11.862Z,1007.36
2016-05-25T06:22:11.695Z,1007.35
2016-05-25T06:23:11.665Z,1007.33
2016-05-25T06:24:11.871Z,1007.33
2016-05-25T06:25:11.609Z,1007.35
2016-05-25T06:26:11.595Z,1007.36
2016-05-25T06:27:11.567Z,1007.38
2016-05-25T06:28:11.522Z,1007.42
2016-05-25T06:29:11.634Z,1007.43
2016-05-25T06:30:11.480Z,1007.41
2016-05-25T06:31:11.452Z,1007.4
2016-05-25T06:32:11.439Z,1007.46
2016-05-25T06:33:11.411Z,1007.47
2016-05-25T06:34:11.398Z,1007.47
2016-05-25T06:35:11.401Z,1007.5
2016-05-25T06:36:11.341Z,1007.52
2016-05-25T06:37:11.313Z,1007.47
2016-05-25T06:38:11.284Z,1007.51
2016-05-25T06:39:11.333Z,1007.5
2016-05-25T06:40:11.461Z,1007.53
2016-05-25T06:41:11.245Z,1007.55
2016-05-25T06:42:11.577Z,1007.56
2016-05-25T06:43:11.172Z,1007.57
2016-05-25T06:44:11.175Z,1007.58
2016-05-25T06:45:11.131Z,1007.6
2016-05-25T06:46:11.149Z,1007.61
2016-05-25T06:47:11.136Z,1007.6
2016-05-25T06:48:11.076Z,1007.66
2016-05-25T06:49:11.188Z,1007.64
2016-05-25T06:50:11.019Z,1007.67
2016-05-25T06:51:10.991Z,1007.64
2016-05-25T06:52:10.962Z,1007.65
2016-05-25T06:53:10.933Z,1007.72
2016-05-25T06:54:10.921Z,1007.72
2016-05-25T06:55:10.923Z,1007.69
2016-05-25T06:56:10.864Z,1007.69
2016-05-25T06:57:10.851Z,1007.69
2016-05-25T06:58:10.837Z,1007.68
2016-05-25T06:59:10.840Z,1007.72
2016-05-25T07:00:10.780Z,1007.68
2016-05-25T07:01:10.767Z,1007.67
2016-05-25T07:02:10.739Z,1007.71
2016-05-25T07:03:10.711Z,1007.68
2016-05-25T07:04:10.791Z,1007.69
2016-05-25T07:05:10.669Z,1007.72
2016-05-25T07:06:10.625Z,1007.72
2016-05-25T07:07:10.611Z,1007.69
2016-05-25T07:08:10.599Z,1007.72
2016-05-25T07:09:10.696Z,1007.72
2016-05-25T07:10:10.760Z,1007.7
2016-05-25T07:11:10.513Z,1007.78
2016-05-25T07:12:10.875Z,1007.74
2016-05-25T07:13:10.471Z,1007.75
2016-05-25T07:14:10.443Z,1007.74
2016-05-25T07:15:10.430Z,1007.76
2016-05-25T07:16:10.385Z,1007.78
2016-05-25T07:17:10.623Z,1007.79
2016-05-25T07:18:10.345Z,1007.8
2016-05-25T07:19:10.410Z,1007.79
2016-05-25T07:20:10.303Z,1007.77
2016-05-25T07:21:10.306Z,1007.83
2016-05-25T07:22:10.356Z,1007.78
2016-05-25T07:23:10.265Z,1007.8
2016-05-25T07:24:10.220Z,1007.82
2016-05-25T07:25:10.192Z,1007.81
2016-05-25T07:26:10.147Z,1007.8
2016-05-25T07:27:10.150Z,1007.84
2016-05-25T07:28:10.122Z,1007.82
2016-05-25T07:29:10.249Z,1007.84
2016-05-25T07:30:10.080Z,1007.82
2016-05-25T07:31:10.098Z,1007.81
2016-05-25T07:32:10.226Z,1007.8
2016-05-25T07:33:10.025Z,1007.82
2016-05-25T07:34:09.981Z,1007.79
2016-05-25T07:35:09.969Z,1007.81
2016-05-25T07:36:09.908Z,1007.8
2016-05-25T07:37:10.506Z,1007.81
2016-05-25T07:38:09.899Z,1007.81
2016-05-25T07:39:09.870Z,1007.76
2016-05-25T07:40:09.825Z,1007.74
2016-05-25T07:41:09.813Z,1007.74
2016-05-25T07:42:10.237Z,1007.71
2016-05-25T07:43:09.755Z,1007.73
2016-05-25T07:44:09.743Z,1007.76
2016-05-25T07:45:09.714Z,1007.77
2016-05-25T07:46:09.701Z,1007.74
2016-05-25T07:47:10.094Z,1007.75
2016-05-25T07:48:09.660Z,1007.74
2016-05-25T07:49:09.646Z,1007.72
2016-05-25T07:50:09.619Z,1007.74
2016-05-25T07:51:09.590Z,1007.73
2016-05-25T07:52:09.577Z,1007.76
2016-05-25T07:53:09.548Z,1007.73
2016-05-25T07:54:09.504Z,1007.74
2016-05-25T07:55:09.679Z,1007.74
2016-05-25T07:56:09.448Z,1007.76
2016-05-25T07:57:09.481Z,1007.79
2016-05-25T07:58:09.420Z,1007.73
2016-05-25T07:59:09.393Z,1007.75
2016-05-25T08:00:09.583Z,1007.71
2016-05-25T08:01:09.350Z,1007.75
2016-05-25T08:02:09.322Z,1007.74
2016-05-25T08:03:09.309Z,1007.78
2016-05-25T08:04:09.562Z,1007.72
2016-05-25T08:05:09.628Z,1007.75
2016-05-25T08:06:09.302Z,1007.71
2016-05-25T08:07:09.227Z,1007.73
2016-05-25T08:08:09.198Z,1007.75
2016-05-25T08:09:09.185Z,1007.73
2016-05-25T08:10:09.235Z,1007.75
2016-05-25T08:11:09.128Z,1007.77
2016-05-25T08:12:09.100Z,1007.76
2016-05-25T08:13:09.071Z,1007.81
2016-05-25T08:14:09.057Z,1007.83
2016-05-25T08:15:09.013Z,1007.84
2016-05-25T08:16:09.001Z,1007.83
2016-05-25T08:17:08.972Z,1007.85
2016-05-25T08:18:08.960Z,1007.75
2016-05-25T08:19:08.946Z,1007.8
2016-05-25T08:20:08.902Z,1007.79
2016-05-25T08:21:09.155Z,1007.75
2016-05-25T08:22:08.860Z,1007.8
2016-05-25T08:23:08.879Z,1007.74
2016-05-25T08:24:08.819Z,1007.73
2016-05-25T08:25:08.806Z,1007.78
2016-05-25T08:26:08.762Z,1007.79
2016-05-25T08:27:08.748Z,1007.79
2016-05-25T08:28:08.720Z,1007.8
2016-05-25T08:29:08.707Z,1007.76
2016-05-25T08:30:08.851Z,1007.8
2016-05-25T08:31:08.666Z,1007.81
2016-05-25T08:32:08.622Z,1007.79
2016-05-25T08:33:08.625Z,1007.78
2016-05-25T08:34:08.675Z,1007.76
2016-05-25T08:35:08.583Z,1007.76
2016-05-25T08:36:08.539Z,1007.75
2016-05-25T08:37:08.510Z,1007.76
2016-05-25T08:38:08.576Z,1007.78
2016-05-25T08:39:08.469Z,1007.74
2016-05-25T08:40:08.628Z,1007.72
2016-05-25T08:41:08.443Z,1007.77
2016-05-25T08:42:08.399Z,1007.74
2016-05-25T08:43:08.386Z,1007.75
2016-05-25T08:44:08.357Z,1007.76
2016-05-25T08:45:08.360Z,1007.73
2016-05-25T08:46:08.316Z,1007.75
2016-05-25T08:47:08.334Z,1007.75
2016-05-25T08:48:08.274Z,1007.74
2016-05-25T08:49:08.277Z,1007.82
2016-05-25T08:50:08.217Z,1007.75
2016-05-25T08:51:08.220Z,1007.79
2016-05-25T08:52:08.301Z,1007.79
2016-05-25T08:53:08.288Z,1007.82
2016-05-25T08:54:08.243Z,1007.82
2016-05-25T08:55:08.262Z,1007.83
2016-05-25T08:56:08.093Z,1007.8
2016-05-25T08:57:08.064Z,1007.82
2016-05-25T08:58:08.020Z,1007.77
2016-05-25T08:59:08.054Z,1007.78
2016-05-25T09:00:07.995Z,1007.74
2016-05-25T09:01:07.965Z,1007.77
2016-05-25T09:02:08.171Z,1007.77
2016-05-25T09:03:07.909Z,1007.76
2016-05-25T09:04:07.973Z,1007.8
2016-05-25T09:05:07.882Z,1007.78
2016-05-25T09:06:07.917Z,1007.82
2016-05-25T09:07:07.856Z,1007.79
2016-05-25T09:08:07.797Z,1007.83
2016-05-25T09:09:07.784Z,1007.87
2016-05-25T09:10:07.771Z,1007.84
2016-05-25T09:11:07.711Z,1007.86
2016-05-25T09:12:07.730Z,1007.84
2016-05-25T09:13:08.030Z,1007.81
2016-05-25T09:14:07.672Z,1007.81
2016-05-25T09:15:07.628Z,1007.82
2016-05-25T09:16:07.631Z,1007.81
2016-05-25T09:17:08.462Z,1007.84
2016-05-25T09:18:07.604Z,1007.85
2016-05-25T09:19:07.561Z,1007.84
2016-05-25T09:20:07.532Z,1007.85
2016-05-25T09:21:07.504Z,1007.84
2016-05-25T09:22:07.491Z,1007.82
2016-05-25T09:23:07.463Z,1007.78
2016-05-25T09:24:07.434Z,1007.75
2016-05-25T09:25:07.421Z,1007.75
2016-05-25T09:26:07.423Z,1007.75
2016-05-25T09:27:07.379Z,1007.73
2016-05-25T09:28:07.350Z,1007.74
2016-05-25T09:29:07.322Z,1007.76
2016-05-25T09:30:07.293Z,1007.73
2016-05-25T09:31:07.281Z,1007.74
2016-05-25T09:32:07.893Z,1007.72
2016-05-25T09:33:07.239Z,1007.72
2016-05-25T09:34:07.211Z,1007.71
2016-05-25T09:35:07.198Z,1007.69
2016-05-25T09:36:07.169Z,1007.71
2016-05-25T09:37:07.125Z,1007.71
2016-05-25T09:38:07.142Z,1007.76
2016-05-25T09:39:07.115Z,1007.77
2016-05-25T09:40:07.070Z,1007.76
2016-05-25T09:41:07.307Z,1007.76
2016-05-25T09:42:07.045Z,1007.8
2016-05-25T09:43:07.032Z,1007.82
2016-05-25T09:44:07.191Z,1007.75
2016-05-25T09:45:06.974Z,1007.83
2016-05-25T09:46:06.946Z,1007.87
2016-05-25T09:47:06.933Z,1007.86
2016-05-25T09:48:06.889Z,1007.85
2016-05-25T09:49:06.860Z,1007.89
2016-05-25T09:50:06.847Z,1007.89
2016-05-25T09:51:06.850Z,1007.87
2016-05-25T09:52:06.805Z,1007.88
2016-05-25T09:53:07.855Z,1007.87
2016-05-25T09:54:06.765Z,1007.85
2016-05-25T09:55:06.720Z,1007.84
2016-05-25T09:56:06.738Z,1007.83
2016-05-25T09:57:06.678Z,1007.83
2016-05-25T09:58:06.666Z,1007.85
2016-05-25T09:59:06.653Z,1007.86
2016-05-25T10:00:06.623Z,1007.85
2016-05-25T10:01:06.954Z,1007.86
2016-05-25T10:02:07.192Z,1007.86
2016-05-25T10:03:06.710Z,1007.85
2016-05-25T10:04:06.728Z,1007.78
2016-05-25T10:05:06.528Z,1007.82
2016-05-25T10:06:06.500Z,1007.83
2016-05-25T10:07:06.455Z,1007.8
2016-05-25T10:08:06.614Z,1007.84
2016-05-25T10:09:06.430Z,1007.84
2016-05-25T10:10:06.386Z,1007.82
2016-05-25T10:11:06.372Z,1007.79
2016-05-25T10:12:06.375Z,1007.8
2016-05-25T10:13:06.316Z,1007.8
2016-05-25T10:14:06.333Z,1007.82
2016-05-25T10:15:06.274Z,1007.79
2016-05-25T10:16:06.261Z,1007.82
2016-05-25T10:17:06.233Z,1007.8
2016-05-25T10:18:06.220Z,1007.83
2016-05-25T10:19:06.191Z,1007.83
2016-05-25T10:20:07.896Z,1007.8
2016-05-25T10:21:06.196Z,1007.79
2016-05-25T10:22:06.121Z,1007.75
2016-05-25T10:23:06.108Z,1007.72
2016-05-25T10:24:06.095Z,1007.7
2016-05-25T10:25:06.052Z,1007.68
2016-05-25T10:26:06.038Z,1007.71
2016-05-25T10:27:06.274Z,1007.69
2016-05-25T10:28:06.497Z,1007.66
2016-05-25T10:29:05.968Z,1007.64
2016-05-25T10:30:05.939Z,1007.66
2016-05-25T10:31:05.957Z,1007.6
2016-05-25T10:32:05.913Z,1007.59
2016-05-25T10:33:05.885Z,1007.6
2016-05-25T10:34:05.840Z,1007.58
2016-05-25T10:35:05.812Z,1007.61
2016-05-25T10:36:05.815Z,1007.6
2016-05-25T10:37:05.801Z,1007.57
2016-05-25T10:38:05.773Z,1007.6
2016-05-25T10:39:05.761Z,1007.62
2016-05-25T10:40:05.731Z,1007.65
2016-05-25T10:41:05.734Z,1007.63
2016-05-25T10:42:05.675Z,1007.62
2016-05-25T10:43:05.647Z,1007.61
2016-05-25T10:44:05.633Z,1007.65
2016-05-25T10:46:05.716Z,1007.65
2016-05-25T10:47:05.578Z,1007.64
2016-05-25T10:48:05.581Z,1007.67
2016-05-25T10:49:05.616Z,1007.66
2016-05-25T10:50:05.493Z,1007.63
2016-05-25T10:51:05.480Z,1007.67
2016-05-25T10:52:05.467Z,1007.67
2016-05-25T10:53:05.439Z,1007.64
2016-05-25T10:54:05.426Z,1007.64
2016-05-25T10:55:05.725Z,1007.63
2016-05-25T10:56:05.416Z,1007.63
2016-05-25T10:57:05.934Z,1007.61
2016-05-25T10:58:05.390Z,1007.62
2016-05-25T10:59:05.298Z,1007.62
2016-05-25T11:00:05.270Z,1007.6
2016-05-25T11:01:05.241Z,1007.57
2016-05-25T11:02:06.447Z,1007.57
2016-05-25T11:03:05.247Z,1007.58
2016-05-25T11:04:05.187Z,1007.6
2016-05-25T11:05:05.159Z,1007.57
2016-05-25T11:06:05.130Z,1007.61
2016-05-25T11:07:05.117Z,1007.58
2016-05-25T11:08:05.089Z,1007.59
2016-05-25T11:09:05.216Z,1007.58
2016-05-25T11:10:05.062Z,1007.54
2016-05-25T11:11:05.034Z,1007.59
2016-05-25T11:12:04.990Z,1007.51
2016-05-25T11:13:05.117Z,1007.55
2016-05-25T11:14:04.963Z,1007.6
2016-05-25T11:15:05.278Z,1007.52
2016-05-25T11:16:04.922Z,1007.56
2016-05-25T11:17:05.206Z,1007.53
2016-05-25T11:18:04.881Z,1007.54
2016-05-25T11:19:04.853Z,1007.57
2016-05-25T11:20:04.917Z,1007.55
2016-05-25T11:21:04.810Z,1007.57
2016-05-25T11:22:04.783Z,1007.58
2016-05-25T11:23:04.754Z,1007.54
2016-05-25T11:24:04.741Z,1007.56
2016-05-25T11:25:05.118Z,1007.56
2016-05-25T11:26:04.684Z,1007.58
2016-05-25T11:27:04.671Z,1007.54
2016-05-25T11:28:04.657Z,1007.58
2016-05-25T11:29:04.629Z,1007.55
2016-05-25T11:30:04.616Z,1007.55
2016-05-25T11:31:04.775Z,1007.55
2016-05-25T11:32:04.559Z,1007.51
2016-05-25T11:33:04.531Z,1007.52
2016-05-25T11:34:04.534Z,1007.52
2016-05-25T11:35:04.521Z,1007.5
2016-05-25T11:36:04.492Z,1007.51
2016-05-25T11:37:04.462Z,1007.5
2016-05-25T11:38:04.420Z,1007.54
2016-05-25T11:39:04.422Z,1007.54
2016-05-25T11:40:04.393Z,1007.51
2016-05-25T11:41:04.396Z,1007.51
2016-05-25T11:42:04.336Z,1007.53
2016-05-25T11:43:04.323Z,1007.5
2016-05-25T11:44:04.294Z,1007.49
2016-05-25T11:45:04.281Z,1007.53
2016-05-25T11:46:04.253Z,1007.52
2016-05-25T11:47:04.569Z,1007.49
2016-05-25T11:48:04.212Z,1007.48
2016-05-25T11:49:04.199Z,1007.47
2016-05-25T11:50:04.170Z,1007.47
2016-05-25T11:51:04.422Z,1007.49
2016-05-25T11:52:05.019Z,1007.44
2016-05-25T11:53:04.319Z,1007.44
2016-05-25T11:54:04.071Z,1007.47
2016-05-25T11:55:04.074Z,1007.45
2016-05-25T11:56:04.046Z,1007.48
2016-05-25T11:57:04.220Z,1007.46
2016-05-25T11:58:03.988Z,1007.45
2016-05-25T11:59:03.991Z,1007.47
2016-05-25T12:00:06.947Z,1007.46
2016-05-25T12:01:03.949Z,1007.47
2016-05-25T12:02:03.890Z,1007.48
2016-05-25T12:03:03.987Z,1007.43
2016-05-25T12:04:03.865Z,1007.42
2016-05-25T12:05:03.867Z,1007.44
2016-05-25T12:06:03.822Z,1007.41
2016-05-25T12:07:03.809Z,1007.42
2016-05-25T12:08:03.781Z,1007.41
2016-05-25T12:09:03.737Z,1007.42
2016-05-25T12:10:03.740Z,1007.43
2016-05-25T12:11:03.711Z,1007.41
2016-05-25T12:12:03.713Z,1007.37